Time;durP1;ratioP1;P1;durP2;ratioP2;P2;SDS_P1;SDS_P2;PMS_P1;PMS_P2;Temp;Humidity;BMP_temperature;BMP_pressure;BME280_temperature;BME280_humidity;BME280_pressure;Samples;Min_cycle;Max_cycle;Signal;HPM_P1;HPM_P2
2022/06/10 00:00:30;;;;;;;7.80;4.40;;;16.20;99.90;;;;;;4153426;28;20838;-67
2022/06/10 00:02:32;;;;;;;11.68;4.40;;;16.20;99.90;;;;;;4146667;28;20087;-64
2022/06/10 00:04:34;;;;;;;7.43;4.20;;;16.20;99.90;;;;;;4153182;28;20049;-64
2022/06/10 00:06:36;;;;;;;6.68;4.72;;;16.20;99.90;;;;;;4157343;28;20540;-65
2022/06/10 00:08:46;;;;;;;10.52;4.80;;;16.10;99.90;;;;;;4155021;28;20033;-65
2022/06/10 00:10:49;;;;;;;5.72;4.05;;;16.10;99.90;;;;;;4156496;28;20095;-68
2022/06/10 00:12:50;;;;;;;4.50;4.10;;;16.10;99.90;;;;;;4155257;28;20961;-67
2022/06/10 00:14:51;;;;;;;10.05;4.57;;;16.10;99.90;;;;;;4143485;28;20079;-70
2022/06/10 00:16:54;;;;;;;9.48;4.22;;;16.10;99.90;;;;;;4141244;28;20438;-65
2022/06/10 00:18:56;;;;;;;9.23;4.45;;;16.10;99.90;;;;;;4145056;28;20448;-70
2022/06/10 00:20:58;;;;;;;6.03;4.68;;;16.10;99.90;;;;;;4142541;28;20167;-68
2022/06/10 00:23:00;;;;;;;6.72;4.80;;;16.10;99.90;;;;;;4144083;28;20367;-67
2022/06/10 00:25:01;;;;;;;11.65;5.03;;;16.10;99.90;;;;;;4147459;28;20049;-68
2022/06/10 00:27:02;;;;;;;5.40;4.50;;;16.00;99.90;;;;;;4140279;28;20092;-69
2022/06/10 00:29:03;;;;;;;10.23;4.20;;;16.00;99.90;;;;;;4140474;28;20041;-69
2022/06/10 00:31:06;;;;;;;7.90;4.18;;;16.00;99.90;;;;;;4139315;28;20041;-66
2022/06/10 00:33:07;;;;;;;7.28;4.00;;;16.00;99.90;;;;;;4148776;28;20029;-67
2022/06/10 00:35:10;;;;;;;5.53;4.22;;;16.00;99.90;;;;;;4155715;28;20030;-69
2022/06/10 00:37:11;;;;;;;7.07;4.50;;;16.00;99.90;;;;;;4156458;28;20034;-68
2022/06/10 00:39:12;;;;;;;8.90;4.68;;;16.00;99.90;;;;;;4148873;28;20548;-68
2022/06/10 00:41:13;;;;;;;10.25;4.82;;;15.90;99.90;;;;;;4145416;28;20029;-70
2022/06/10 00:43:17;;;;;;;6.05;4.25;;;15.90;99.90;;;;;;4154065;28;20466;-66
2022/06/10 00:45:57;;;;;;;14.68;5.00;;;15.90;99.90;;;;;;4151358;28;20471;-65
2022/06/10 00:47:58;;;;;;;8.30;4.03;;;15.90;99.90;;;;;;4141554;28;20041;-65
2022/06/10 00:50:13;;;;;;;5.53;4.38;;;15.90;99.90;;;;;;4156844;28;20853;-66
2022/06/10 00:52:24;;;;;;;5.47;3.88;;;15.90;99.90;;;;;;4155445;28;20030;-64
2022/06/10 00:54:41;;;;;;;11.00;5.35;;;15.80;99.90;;;;;;4148773;28;20034;-66
2022/06/10 00:56:48;;;;;;;7.03;4.45;;;15.80;99.90;;;;;;4139369;28;20046;-64
2022/06/10 00:58:58;;;;;;;9.45;5.00;;;15.80;99.90;;;;;;4156596;28;20092;-68
2022/06/10 01:01:01;;;;;;;8.90;4.65;;;15.80;99.90;;;;;;4147091;28;20556;-65
2022/06/10 01:03:02;;;;;;;6.20;4.20;;;15.80;99.90;;;;;;4140215;28;20429;-69
2022/06/10 01:05:11;;;;;;;6.53;4.38;;;15.70;99.90;;;;;;4155112;28;20057;-65
2022/06/10 01:07:17;;;;;;;9.25;4.63;;;15.70;99.90;;;;;;4156519;28;20444;-65
2022/06/10 01:09:19;;;;;;;7.57;5.18;;;15.70;99.90;;;;;;4155391;28;20104;-64
2022/06/10 01:12:01;;;;;;;6.22;4.30;;;15.70;99.90;;;;;;4155664;28;20030;-64
2022/06/10 01:14:16;;;;;;;5.80;4.10;;;15.70;99.90;;;;;;4140086;28;20049;-67
2022/06/10 01:16:31;;;;;;;9.05;4.53;;;15.70;99.90;;;;;;4141234;28;20037;-66
2022/06/10 01:18:49;;;;;;;8.82;4.43;;;15.70;99.90;;;;;;4153430;28;20079;-66
2022/06/10 01:21:29;;;;;;;6.75;4.45;;;15.60;99.90;;;;;;4123628;28;20795;-65
2022/06/10 01:24:02;;;;;;;6.47;4.53;;;15.60;99.90;;;;;;4126466;28;20514;-63
2022/06/10 01:26:21;;;;;;;8.20;5.25;;;15.60;99.90;;;;;;4134268;28;20120;-67
2022/06/10 01:28:38;;;;;;;8.77;4.65;;;15.60;99.90;;;;;;4142561;28;20057;-66
2022/06/10 01:30:56;;;;;;;7.88;4.63;;;15.50;99.90;;;;;;4140280;28;20045;-68
2022/06/10 01:33:24;;;;;;;6.45;4.10;;;15.50;99.90;;;;;;4141736;28;20056;-71
2022/06/10 01:35:31;;;;;;;8.18;4.30;;;15.50;99.90;;;;;;4153312;28;20037;-68
2022/06/10 01:37:42;;;;;;;5.88;4.00;;;15.50;99.90;;;;;;4159354;28;20029;-67
2022/06/10 01:40:14;;;;;;;7.60;4.00;;;15.40;99.90;;;;;;4157873;28;20037;-67
2022/06/10 01:42:29;;;;;;;6.75;4.22;;;15.40;99.90;;;;;;4126634;28;20565;-70
2022/06/10 01:44:45;;;;;;;6.85;4.15;;;15.40;99.90;;;;;;4125459;28;20050;-67
2022/06/10 01:46:52;;;;;;;5.68;3.50;;;15.40;99.90;;;;;;4137308;28;20111;-68
2022/06/10 01:49:05;;;;;;;5.82;4.55;;;15.40;99.90;;;;;;4141759;28;20045;-68
2022/06/10 01:51:10;;;;;;;5.00;4.20;;;15.40;99.90;;;;;;4156284;28;20053;-63
2022/06/10 01:53:22;;;;;;;7.57;3.53;;;15.40;99.90;;;;;;4128791;28;20026;-66
2022/06/10 01:55:35;;;;;;;7.18;3.97;;;15.30;99.90;;;;;;4142603;28;20045;-65
2022/06/10 01:58:04;;;;;;;6.30;4.20;;;15.30;99.90;;;;;;4155946;28;20045;-67
2022/06/10 02:00:17;;;;;;;5.68;3.97;;;15.30;99.90;;;;;;4125748;28;20104;-66
2022/06/10 02:02:23;;;;;;;6.35;3.88;;;15.30;99.90;;;;;;4129884;28;20030;-70
2022/06/10 02:04:30;;;;;;;5.97;4.43;;;15.30;99.90;;;;;;4142572;28;20490;-68
2022/06/10 02:06:38;;;;;;;6.60;4.05;;;15.30;99.90;;;;;;4154391;28;20045;-65
2022/06/10 02:08:53;;;;;;;7.35;3.95;;;15.30;99.90;;;;;;4159146;28;20083;-69
2022/06/10 02:11:09;;;;;;;7.72;4.07;;;15.30;99.90;;;;;;4157111;28;20594;-69
2022/06/10 02:13:16;;;;;;;6.47;3.85;;;15.30;99.90;;;;;;4158701;28;20043;-65
2022/06/10 02:15:27;;;;;;;5.97;3.80;;;15.30;99.90;;;;;;4151333;28;20049;-65
2022/06/10 02:17:37;;;;;;;5.63;3.75;;;15.30;99.90;;;;;;4142631;28;20490;-66
2022/06/10 02:19:44;;;;;;;9.02;4.57;;;15.30;99.90;;;;;;4140995;28;20034;-68
2022/06/10 02:21:57;;;;;;;9.55;4.82;;;15.20;99.90;;;;;;4153495;28;20029;-69
2022/06/10 02:24:44;;;;;;;7.78;5.00;;;15.20;99.90;;;;;;4155170;28;20500;-66
2022/06/10 02:26:47;;;;;;;8.18;5.20;;;15.10;99.90;;;;;;4155621;28;20037;-67
2022/06/10 02:28:51;;;;;;;7.88;4.82;;;15.10;99.90;;;;;;4147347;28;20018;-66
2022/06/10 02:31:03;;;;;;;10.88;4.68;;;15.10;99.90;;;;;;4141873;28;20028;-67
2022/06/10 02:33:05;;;;;;;10.52;4.38;;;15.10;99.90;;;;;;4142412;28;20914;-70
2022/06/10 02:35:08;;;;;;;7.65;5.03;;;15.10;99.90;;;;;;4142378;28;20034;-67
2022/06/10 02:37:14;;;;;;;8.43;4.75;;;15.10;99.90;;;;;;4141047;28;20026;-67
2022/06/10 02:39:30;;;;;;;9.68;4.93;;;15.10;99.90;;;;;;4143144;28;20401;-67
2022/06/10 02:42:03;;;;;;;6.78;4.53;;;15.10;99.90;;;;;;4140728;28;20029;-70
2022/06/10 02:44:21;;;;;;;14.50;5.28;;;15.20;99.90;;;;;;4153307;28;20425;-67
2022/06/10 02:46:38;;;;;;;10.95;5.38;;;15.20;99.90;;;;;;4140711;28;20076;-69
2022/06/10 02:49:07;;;;;;;8.40;6.22;;;15.30;99.90;;;;;;4141616;28;20050;-67
2022/06/10 02:51:09;;;;;;;6.43;4.68;;;15.40;99.90;;;;;;4141356;28;20100;-70
2022/06/10 02:53:11;;;;;;;6.80;4.13;;;15.40;99.90;;;;;;4153685;28;20030;-70
2022/06/10 02:55:22;;;;;;;9.13;4.45;;;15.50;99.90;;;;;;4148260;28;20076;-68
2022/06/10 03:02:47;;;;;;;4.70;3.95;;;15.70;99.90;;;;;;4156985;28;20041;-68
2022/06/10 03:05:16;;;;;;;9.13;4.50;;;15.70;99.90;;;;;;4157957;28;20045;-68
2022/06/10 03:07:32;;;;;;;9.48;4.88;;;15.90;99.90;;;;;;4124891;28;20077;-68
2022/06/10 03:10:05;;;;;;;6.13;4.10;;;16.00;99.90;;;;;;4141738;28;20038;-67
2022/06/10 03:12:35;;;;;;;10.60;3.92;;;16.20;99.90;;;;;;4139124;28;20076;-68
2022/06/10 03:15:04;;;;;;;7.07;4.20;;;16.30;99.90;;;;;;4141357;28;20049;-68
2022/06/10 03:17:30;;;;;;;5.28;4.30;;;16.20;99.90;;;;;;4137498;28;20045;-69
2022/06/10 03:19:56;;;;;;;9.70;4.28;;;16.20;99.90;;;;;;4156712;28;20079;-68
2022/06/10 03:22:19;;;;;;;5.32;3.88;;;16.20;99.90;;;;;;4141745;28;20104;-67
2022/06/10 03:24:42;;;;;;;9.65;4.15;;;16.20;99.90;;;;;;4146477;28;20053;-69
2022/06/10 03:27:14;;;;;;;7.03;4.03;;;16.30;99.90;;;;;;4157279;28;20084;-67
2022/06/10 03:29:23;;;;;;;5.32;4.18;;;16.50;99.90;;;;;;4143327;28;20109;-69
2022/06/10 03:31:32;;;;;;;6.60;3.70;;;16.50;99.90;;;;;;4153222;28;20045;-70
2022/06/10 03:33:59;;;;;;;7.40;3.55;;;16.50;99.90;;;;;;4155893;28;20079;-69
2022/06/10 03:36:12;;;;;;;5.72;3.78;;;16.50;99.90;;;;;;4156402;28;20079;-67
2022/06/10 03:38:14;;;;;;;6.30;3.80;;;16.40;99.90;;;;;;4146123;28;20643;-69
2022/06/10 03:40:22;;;;;;;9.35;4.30;;;16.30;99.90;;;;;;4141322;28;20049;-69
2022/06/10 03:42:26;;;;;;;6.10;3.10;;;16.40;99.90;;;;;;4144952;28;20037;-68
2022/06/10 03:44:28;;;;;;;5.22;3.70;;;16.50;99.90;;;;;;4148361;28;20092;-64
2022/06/10 03:46:33;;;;;;;5.68;3.40;;;16.40;99.90;;;;;;4152316;28;20107;-68
2022/06/10 03:48:36;;;;;;;5.50;3.85;;;16.40;99.90;;;;;;4156928;28;20090;-66
2022/06/10 03:50:39;;;;;;;7.55;3.22;;;16.40;99.90;;;;;;4142676;28;20084;-67
2022/06/10 03:52:42;;;;;;;6.47;3.20;;;16.40;99.90;;;;;;4140687;28;20034;-70
2022/06/10 03:54:43;;;;;;;5.57;3.28;;;16.40;99.90;;;;;;4139311;28;20507;-67
2022/06/10 03:56:45;;;;;;;7.65;3.55;;;16.40;99.90;;;;;;4140757;28;20104;-69
2022/06/10 03:58:46;;;;;;;6.50;4.13;;;16.50;99.90;;;;;;4138906;28;20073;-69
2022/06/10 04:00:48;;;;;;;5.30;3.22;;;16.50;99.90;;;;;;4141808;28;20107;-66
2022/06/10 04:02:51;;;;;;;5.20;3.80;;;16.40;99.90;;;;;;4139540;28;20292;-68
2022/06/10 04:04:52;;;;;;;6.35;3.25;;;16.50;99.90;;;;;;4140382;28;20080;-70
2022/06/10 04:06:53;;;;;;;7.35;3.20;;;16.70;99.90;;;;;;4139124;28;20538;-65
2022/06/10 04:08:55;;;;;;;9.57;4.05;;;16.70;99.90;;;;;;4140097;28;20103;-64
2022/06/10 04:10:56;;;;;;;10.68;3.65;;;16.60;99.90;;;;;;4170251;28;20119;-66
2022/06/10 04:12:58;;;;;;;7.43;3.40;;;16.50;99.90;;;;;;4139934;28;20042;-65
2022/06/10 04:14:59;;;;;;;8.40;3.85;;;16.50;99.90;;;;;;4142930;28;20457;-67
2022/06/10 04:17:00;;;;;;;4.25;2.95;;;16.50;99.90;;;;;;4139371;28;20088;-66
2022/06/10 04:19:02;;;;;;;8.13;3.15;;;16.50;99.90;;;;;;4140359;28;20034;-69
2022/06/10 04:21:04;;;;;;;7.90;3.38;;;16.50;99.90;;;;;;4139449;28;20045;-74
2022/06/10 04:23:06;;;;;;;9.77;3.55;;;16.60;99.90;;;;;;4139993;28;20492;-73
2022/06/10 04:25:08;;;;;;;4.35;3.67;;;16.60;99.90;;;;;;4138734;28;20095;-66
2022/06/10 04:27:09;;;;;;;8.43;4.85;;;16.70;99.90;;;;;;4140015;28;20050;-68
2022/06/10 04:29:13;;;;;;;6.85;3.70;;;16.80;99.90;;;;;;4138452;28;20084;-69
2022/06/10 04:31:14;;;;;;;8.13;3.75;;;16.90;99.90;;;;;;4154099;28;20087;-71
2022/06/10 04:33:16;;;;;;;6.35;3.58;;;17.00;99.90;;;;;;4144952;28;20046;-71
2022/06/10 04:35:18;;;;;;;5.15;3.30;;;17.20;99.90;;;;;;4139976;28;20127;-67
2022/06/10 04:37:19;;;;;;;6.90;3.58;;;17.30;99.90;;;;;;4138519;28;20034;-66
2022/06/10 04:39:20;;;;;;;5.47;3.30;;;17.30;99.90;;;;;;4139711;28;20441;-69
2022/06/10 04:41:22;;;;;;;7.40;3.60;;;17.30;99.90;;;;;;4132677;28;20104;-69
2022/06/10 04:43:23;;;;;;;6.80;3.30;;;17.40;99.90;;;;;;4133735;28;20120;-68
2022/06/10 04:45:31;;;;;;;10.02;3.58;;;17.40;99.90;;;;;;4137104;28;20448;-66
2022/06/10 04:47:32;;;;;;;6.65;3.65;;;17.40;99.90;;;;;;4130131;28;20540;-66
2022/06/10 04:49:36;;;;;;;8.15;3.58;;;17.40;99.90;;;;;;4140096;28;20096;-66
2022/06/10 04:51:37;;;;;;;7.15;3.38;;;17.50;99.90;;;;;;4126643;28;20027;-66
2022/06/10 04:53:38;;;;;;;4.68;3.38;;;17.60;99.90;;;;;;4124023;28;20065;-66
2022/06/10 04:55:40;;;;;;;3.33;3.00;;;17.70;99.90;;;;;;4126741;28;20429;-66
2022/06/10 04:57:41;;;;;;;6.97;3.22;;;17.60;99.90;;;;;;4139451;28;20057;-65
2022/06/10 04:59:42;;;;;;;5.38;3.78;;;17.70;99.90;;;;;;4146644;28;20080;-68
2022/06/10 05:01:43;;;;;;;5.65;3.15;;;17.80;99.90;;;;;;4155592;28;20116;-63
2022/06/10 05:03:44;;;;;;;11.80;3.75;;;17.80;99.90;;;;;;4145392;28;20112;-64
2022/06/10 05:05:45;;;;;;;8.40;3.17;;;17.70;99.90;;;;;;4140060;28;20100;-68
2022/06/10 05:07:47;;;;;;;7.55;3.53;;;17.80;99.90;;;;;;4141614;28;20096;-66
2022/06/10 05:09:48;;;;;;;8.65;4.05;;;17.70;99.90;;;;;;4143180;28;20171;-65
2022/06/10 05:11:49;;;;;;;8.00;2.95;;;17.70;99.90;;;;;;4141483;28;20050;-66
2022/06/10 05:13:50;;;;;;;6.47;2.97;;;17.70;99.90;;;;;;4143283;28;20073;-68
2022/06/10 05:15:52;;;;;;;8.38;3.65;;;17.80;99.90;;;;;;4141971;28;20080;-66
2022/06/10 05:17:56;;;;;;;4.65;3.45;;;17.80;99.90;;;;;;4142202;28;20811;-68
2022/06/10 05:19:57;;;;;;;9.68;3.97;;;17.90;99.90;;;;;;4142452;28;20509;-66
2022/06/10 05:21:58;;;;;;;9.38;4.60;;;18.00;99.90;;;;;;4141660;28;20034;-68
2022/06/10 05:23:59;;;;;;;6.32;3.67;;;18.10;99.90;;;;;;4142144;28;20121;-64
2022/06/10 05:26:01;;;;;;;6.53;3.83;;;18.10;99.90;;;;;;4141509;28;20050;-66
2022/06/10 05:28:02;;;;;;;10.82;4.07;;;18.10;99.90;;;;;;4142873;28;20434;-66
2022/06/10 05:30:06;;;;;;;6.88;3.17;;;18.20;99.90;;;;;;4141093;28;20045;-65
2022/06/10 05:32:07;;;;;;;7.45;3.35;;;18.10;99.90;;;;;;4142130;28;20637;-65
2022/06/10 05:36:29;;;;;;;5.00;2.97;;;18.10;99.90;;;;;;4142566;28;20034;-65
2022/06/10 05:38:30;;;;;;;10.15;3.90;;;18.30;99.90;;;;;;4140886;28;20161;-65
2022/06/10 05:40:32;;;;;;;5.50;3.63;;;18.20;99.90;;;;;;4142515;28;20068;-65
2022/06/10 05:42:34;;;;;;;8.65;3.78;;;18.30;99.90;;;;;;4140535;28;20022;-65
2022/06/10 05:44:45;;;;;;;11.50;3.60;;;18.50;99.90;;;;;;4142050;28;20114;-65
2022/06/10 05:46:46;;;;;;;7.25;3.40;;;18.70;99.90;;;;;;4139640;28;20080;-65
2022/06/10 05:48:47;;;;;;;8.70;3.40;;;18.80;99.90;;;;;;4142441;28;20038;-65
2022/06/10 05:50:49;;;;;;;5.97;3.55;;;18.90;99.90;;;;;;4140779;28;20616;-64
2022/06/10 05:52:50;;;;;;;6.80;3.42;;;19.10;99.90;;;;;;4142379;28;20201;-65
2022/06/10 05:54:54;;;;;;;7.53;3.17;;;19.20;99.90;;;;;;4140951;28;20042;-66
2022/06/10 05:56:55;;;;;;;6.88;3.55;;;19.40;99.90;;;;;;4141522;28;20104;-67
2022/06/10 05:58:56;;;;;;;7.85;3.25;;;19.70;99.90;;;;;;4141191;28;20045;-65
2022/06/10 06:00:58;;;;;;;7.28;3.13;;;19.90;99.90;;;;;;4140995;28;20100;-65
2022/06/10 06:02:59;;;;;;;5.15;3.00;;;20.00;99.90;;;;;;4142458;28;20041;-65
2022/06/10 06:05:02;;;;;;;5.38;3.13;;;20.20;99.90;;;;;;4141065;28;20104;-66
2022/06/10 06:07:04;;;;;;;7.95;3.13;;;20.40;99.90;;;;;;4142004;28;20056;-65
2022/06/10 06:09:05;;;;;;;6.18;3.38;;;20.50;99.90;;;;;;4140353;28;20042;-66
2022/06/10 06:11:07;;;;;;;6.40;3.55;;;20.60;99.90;;;;;;4141902;28;20089;-65
2022/06/10 06:13:10;;;;;;;9.30;4.10;;;20.60;99.90;;;;;;4141634;28;20081;-65
2022/06/10 06:15:13;;;;;;;12.30;8.73;;;20.60;99.90;;;;;;4142053;28;20041;-66
2022/06/10 06:17:16;;;;;;;14.05;7.63;;;20.50;99.90;;;;;;4139801;28;20441;-64
2022/06/10 06:19:18;;;;;;;10.00;4.50;;;20.70;99.90;;;;;;4141269;28;20096;-64
2022/06/10 06:21:19;;;;;;;10.55;3.50;;;20.80;99.90;;;;;;4140551;28;20030;-66
2022/06/10 06:23:20;;;;;;;7.15;3.45;;;20.90;99.90;;;;;;4141718;28;20025;-66
2022/06/10 06:25:22;;;;;;;12.30;3.65;;;21.00;99.90;;;;;;4140731;28;20034;-65
2022/06/10 06:27:23;;;;;;;8.98;3.92;;;21.10;99.90;;;;;;4141339;28;20576;-65
2022/06/10 06:29:24;;;;;;;9.15;4.03;;;21.20;99.90;;;;;;4140605;28;20049;-66
2022/06/10 06:31:25;;;;;;;6.47;3.28;;;21.50;99.90;;;;;;4141086;28;20433;-66
2022/06/10 06:33:26;;;;;;;8.88;3.60;;;21.70;99.90;;;;;;4141199;28;20398;-65
2022/06/10 06:35:28;;;;;;;10.68;3.55;;;21.80;99.90;;;;;;4140602;28;20084;-67
2022/06/10 06:37:29;;;;;;;8.90;3.50;;;21.80;99.90;;;;;;4141562;28;20038;-65
2022/06/10 06:39:31;;;;;;;7.82;4.10;;;21.90;99.90;;;;;;4140564;28;20104;-66
2022/06/10 06:41:32;;;;;;;7.30;3.53;;;22.00;99.90;;;;;;4140970;28;20038;-65
2022/06/10 06:43:34;;;;;;;8.07;4.63;;;22.00;99.90;;;;;;4139875;28;20441;-65
2022/06/10 06:45:36;;;;;;;11.43;4.45;;;22.10;99.90;;;;;;4141274;28;20100;-65
2022/06/10 06:47:38;;;;;;;6.70;3.20;;;22.30;99.90;;;;;;4139864;28;20112;-68
2022/06/10 06:49:40;;;;;;;9.48;4.30;;;22.40;99.90;;;;;;4141651;28;20100;-66
2022/06/10 06:51:42;;;;;;;8.80;4.20;;;22.60;99.90;;;;;;4140327;28;20030;-66
2022/06/10 06:53:43;;;;;;;5.93;3.33;;;22.80;99.90;;;;;;4141211;28;20381;-68
2022/06/10 06:55:44;;;;;;;4.85;3.45;;;22.90;99.90;;;;;;4140196;28;20442;-66
2022/06/10 06:57:46;;;;;;;7.65;3.95;;;23.10;99.90;;;;;;4141401;28;20053;-65
2022/06/10 06:59:47;;;;;;;6.78;3.60;;;23.40;99.90;;;;;;4140759;28;20034;-65
2022/06/10 07:01:48;;;;;;;11.07;3.67;;;23.90;99.90;;;;;;4140999;28;20088;-68
2022/06/10 07:03:49;;;;;;;9.70;3.42;;;24.20;99.90;;;;;;4140854;28;20034;-66
2022/06/10 07:05:51;;;;;;;8.27;3.35;;;24.50;99.90;;;;;;4140200;28;20100;-66
2022/06/10 07:07:53;;;;;;;8.48;3.50;;;24.80;99.90;;;;;;4140729;28;20026;-66
2022/06/10 07:09:54;;;;;;;11.77;4.30;;;24.80;99.90;;;;;;4140028;28;20100;-67
2022/06/10 07:11:56;;;;;;;6.75;3.58;;;24.70;99.90;;;;;;4141241;28;20100;-65
2022/06/10 07:13:57;;;;;;;10.43;3.65;;;24.80;99.90;;;;;;4139313;28;20577;-65
2022/06/10 07:16:01;;;;;;;11.98;3.95;;;25.10;99.90;;;;;;4140871;28;20033;-65
2022/06/10 07:18:02;;;;;;;9.73;4.32;;;25.50;99.90;;;;;;4140157;28;20037;-65
2022/06/10 07:20:05;;;;;;;10.23;3.92;;;26.00;99.90;;;;;;4141403;28;20030;-65
2022/06/10 07:22:06;;;;;;;5.97;3.45;;;26.40;99.90;;;;;;4139884;28;20046;-66
2022/06/10 07:24:07;;;;;;;7.75;3.40;;;26.50;99.90;;;;;;4141164;28;20038;-66
2022/06/10 07:26:09;;;;;;;9.77;3.25;;;26.30;99.90;;;;;;4139575;28;20104;-67
2022/06/10 07:28:11;;;;;;;3.70;2.70;;;26.20;99.90;;;;;;4141155;28;20038;-67
2022/06/10 07:30:16;;;;;;;16.92;4.05;;;26.20;99.90;;;;;;4138683;28;20030;-66
2022/06/10 07:32:17;;;;;;;9.73;2.92;;;26.60;99.90;;;;;;4140937;28;20640;-66
2022/06/10 07:34:19;;;;;;;8.65;2.63;;;26.70;99.90;;;;;;4139796;28;20442;-66
2022/06/10 07:36:20;;;;;;;9.73;2.85;;;26.60;99.90;;;;;;4140475;28;20084;-66
2022/06/10 07:38:22;;;;;;;5.80;2.63;;;26.50;99.90;;;;;;4140007;28;20087;-67
2022/06/10 07:42:46;;;;;;;6.03;1.65;;;26.50;99.90;;;;;;4139018;28;20034;-66
2022/06/10 07:44:47;;;;;;;2.35;1.58;;;26.70;98.60;;;;;;4138810;28;20525;-67
2022/06/10 07:46:50;;;;;;;4.90;1.38;;;26.70;97.70;;;;;;4139013;28;20592;-66
2022/06/10 07:48:52;;;;;;;4.35;1.83;;;26.80;96.80;;;;;;4143304;28;20033;-67
2022/06/10 07:50:53;;;;;;;2.75;1.73;;;26.70;96.20;;;;;;4142802;28;20043;-67
2022/06/10 07:52:54;;;;;;;3.33;1.90;;;26.80;95.70;;;;;;4152190;28;20087;-66
2022/06/10 07:54:55;;;;;;;3.10;1.40;;;27.10;95.20;;;;;;4155901;28;20087;-67
2022/06/10 07:56:57;;;;;;;2.65;1.30;;;27.30;94.40;;;;;;4155350;28;20045;-67
2022/06/10 07:58:59;;;;;;;2.22;1.25;;;27.50;94.00;;;;;;4157755;28;20516;-66
2022/06/10 08:01:01;;;;;;;2.42;1.48;;;27.80;93.60;;;;;;4155910;28;20084;-66
2022/06/10 08:03:02;;;;;;;4.88;1.40;;;28.10;93.10;;;;;;4156477;28;20041;-65
2022/06/10 08:05:05;;;;;;;4.20;1.55;;;28.10;92.50;;;;;;4155207;28;20107;-65
2022/06/10 08:07:06;;;;;;;4.20;1.63;;;27.80;92.40;;;;;;4156658;28;20045;-68
2022/06/10 08:09:09;;;;;;;6.28;1.30;;;27.60;92.30;;;;;;4155162;28;20284;-66
2022/06/10 08:11:10;;;;;;;5.05;1.58;;;27.50;92.30;;;;;;4156228;28;20030;-66
2022/06/10 08:13:11;;;;;;;9.02;2.63;;;27.10;92.50;;;;;;4155625;28;20041;-66
2022/06/10 08:15:18;;;;;;;4.93;1.52;;;27.10;92.60;;;;;;4155754;28;20964;-66
2022/06/10 08:17:19;;;;;;;2.58;1.40;;;26.90;92.40;;;;;;4155296;28;20063;-66
2022/06/10 08:19:20;;;;;;;5.45;1.73;;;26.80;92.80;;;;;;4155622;28;20041;-65
2022/06/10 08:23:41;;;;;;;7.68;2.70;;;26.90;93.00;;;;;;4155305;28;20109;-66
2022/06/10 08:25:43;;;;;;;5.15;1.83;;;26.60;93.10;;;;;;4155159;28;20049;-68
2022/06/10 08:27:44;;;;;;;2.83;1.75;;;26.40;93.30;;;;;;4154655;28;20908;-67
2022/06/10 08:29:45;;;;;;;4.78;1.67;;;26.20;92.70;;;;;;4156280;28;20037;-65
2022/06/10 08:31:47;;;;;;;4.70;1.50;;;26.10;92.10;;;;;;4154679;28;20029;-70
2022/06/10 08:33:48;;;;;;;5.50;1.40;;;26.30;91.70;;;;;;4156507;28;20103;-69
2022/06/10 08:35:50;;;;;;;2.50;1.20;;;26.40;90.80;;;;;;4154674;28;20025;-71
2022/06/10 08:37:51;;;;;;;4.53;1.90;;;26.10;90.40;;;;;;4156608;28;20029;-72
2022/06/10 08:39:52;;;;;;;3.25;1.48;;;26.20;90.80;;;;;;4154705;28;20041;-68
2022/06/10 08:42:18;;;;;;;2.53;1.42;;;26.30;90.80;;;;;;4155949;28;20034;-70
2022/06/10 08:44:38;;;;;;;3.78;2.00;;;26.50;90.60;;;;;;4154708;28;20491;-71
2022/06/10 08:46:51;;;;;;;8.52;1.33;;;26.80;91.00;;;;;;4156093;28;20445;-67
2022/06/10 08:49:16;;;;;;;3.42;1.45;;;26.90;90.70;;;;;;4155245;28;20025;-70
2022/06/10 08:51:30;;;;;;;4.05;1.55;;;27.10;89.10;;;;;;4156277;28;20037;-68
2022/06/10 08:54:06;;;;;;;2.83;1.33;;;27.30;89.90;;;;;;4154618;28;20041;-67
2022/06/10 08:56:23;;;;;;;5.97;1.40;;;27.50;90.10;;;;;;4136349;28;20112;-66
2022/06/10 08:58:53;;;;;;;3.72;1.55;;;27.50;89.20;;;;;;4148578;28;20444;-65
2022/06/10 09:00:58;;;;;;;4.90;1.20;;;27.30;89.10;;;;;;4153505;28;20080;-65
2022/06/10 09:03:18;;;;;;;5.32;2.00;;;27.20;89.10;;;;;;4140599;28;20038;-64
2022/06/10 09:05:19;;;;;;;5.50;2.05;;;27.10;88.80;;;;;;4151488;28;20025;-66
2022/06/10 09:07:41;;;;;;;6.55;3.00;;;27.40;89.70;;;;;;4154475;28;20087;-64
2022/06/10 09:09:43;;;;;;;5.28;1.92;;;27.50;89.10;;;;;;4150037;28;20030;-65
2022/06/10 09:12:02;;;;;;;3.60;1.73;;;27.70;89.20;;;;;;4154422;28;20053;-65
2022/06/10 09:14:24;;;;;;;5.35;2.60;;;27.70;87.50;;;;;;4154245;28;20617;-65
2022/06/10 09:16:29;;;;;;;1.27;1.02;;;28.00;85.90;;;;;;4153607;28;20061;-65
2022/06/10 09:18:49;;;;;;;4.15;1.05;;;27.90;85.20;;;;;;4138914;28;20026;-64
2022/06/10 09:21:05;;;;;;;5.70;1.10;;;27.80;83.10;;;;;;4123040;28;20042;-65
2022/06/10 09:23:15;;;;;;;2.42;1.50;;;27.60;84.50;;;;;;4121457;28;20035;-66
2022/06/10 09:25:31;;;;;;;5.88;1.70;;;27.60;85.40;;;;;;4123544;28;20026;-67
2022/06/10 09:27:38;;;;;;;4.30;2.63;;;27.80;85.30;;;;;;4147978;28;20164;-69
2022/06/10 09:29:40;;;;;;;7.43;3.00;;;28.00;85.20;;;;;;4154924;28;20042;-66
2022/06/10 09:31:44;;;;;;;2.15;1.02;;;28.10;85.50;;;;;;4152889;28;20099;-67
2022/06/10 09:34:04;;;;;;;1.92;1.20;;;28.30;85.10;;;;;;4155579;28;20103;-68
2022/06/10 09:36:17;;;;;;;6.90;2.05;;;28.20;83.50;;;;;;4154044;28;20045;-67
2022/06/10 09:38:42;;;;;;;2.15;1.17;;;28.10;84.20;;;;;;4155977;28;20933;-68
2022/06/10 09:41:16;;;;;;;2.33;1.17;;;28.20;83.20;;;;;;4150239;28;20111;-69
2022/06/10 09:43:36;;;;;;;2.85;1.48;;;28.20;81.90;;;;;;4155180;28;20067;-70
2022/06/10 09:45:44;;;;;;;3.28;1.20;;;28.10;83.70;;;;;;4154031;28;20060;-70
2022/06/10 09:47:59;;;;;;;1.88;1.08;;;27.70;83.30;;;;;;4155684;28;20041;-69
2022/06/10 09:50:14;;;;;;;2.67;1.33;;;27.60;83.80;;;;;;4154092;28;20568;-70
2022/06/10 09:52:24;;;;;;;2.42;1.20;;;27.60;84.40;;;;;;4155235;28;20474;-68
2022/06/10 09:54:59;;;;;;;4.68;1.17;;;27.80;84.00;;;;;;4157496;28;20037;-66
2022/06/10 09:57:34;;;;;;;6.07;1.40;;;27.70;83.40;;;;;;4156320;28;20049;-67
2022/06/10 10:00:31;;;;;;;5.75;1.70;;;27.50;82.80;;;;;;4157079;28;20038;-69
2022/06/10 10:02:43;;;;;;;6.18;1.48;;;27.20;83.40;;;;;;4138456;28;20620;-69
2022/06/10 10:05:00;;;;;;;4.10;1.25;;;27.10;84.20;;;;;;4151597;28;20555;-67
2022/06/10 10:07:13;;;;;;;2.35;1.50;;;27.20;84.00;;;;;;4156252;28;20124;-67
2022/06/10 10:09:36;;;;;;;4.82;1.10;;;27.50;84.40;;;;;;4157626;28;20091;-68
2022/06/10 10:11:57;;;;;;;2.33;1.48;;;27.70;84.20;;;;;;4156525;28;20428;-70
2022/06/10 10:14:10;;;;;;;3.00;1.30;;;27.80;81.80;;;;;;4157564;28;20477;-68
2022/06/10 10:16:20;;;;;;;6.15;1.42;;;27.40;82.70;;;;;;4156864;28;20087;-66
2022/06/10 10:18:42;;;;;;;4.32;1.20;;;27.10;82.90;;;;;;4157820;28;20107;-69
2022/06/10 10:21:11;;;;;;;5.38;1.60;;;26.90;83.70;;;;;;4157202;28;20041;-67
2022/06/10 10:23:42;;;;;;;2.97;1.10;;;26.70;83.90;;;;;;4153635;28;20080;-70
2022/06/10 10:25:46;;;;;;;1.27;1.10;;;26.70;85.00;;;;;;4145330;28;20045;-67
2022/06/10 10:27:49;;;;;;;2.85;1.30;;;26.70;84.90;;;;;;4156501;28;20160;-70
2022/06/10 10:29:56;;;;;;;2.47;1.10;;;26.70;85.30;;;;;;4148890;28;20544;-70
2022/06/10 10:32:23;;;;;;;6.20;2.22;;;26.80;84.60;;;;;;4157321;28;20041;-70
2022/06/10 10:34:27;;;;;;;5.60;1.20;;;26.70;84.40;;;;;;4143381;28;20084;-68
2022/06/10 10:36:28;;;;;;;2.15;1.50;;;26.60;85.60;;;;;;4140208;28;20089;-67
2022/06/10 10:38:34;;;;;;;3.28;1.50;;;26.30;87.40;;;;;;4142272;28;20084;-68
2022/06/10 10:40:45;;;;;;;4.70;1.60;;;26.10;89.80;;;;;;4140409;28;20029;-68
2022/06/10 10:42:49;;;;;;;4.10;1.33;;;25.70;90.30;;;;;;4142063;28;20076;-68
2022/06/10 10:45:16;;;;;;;5.60;1.45;;;25.40;90.70;;;;;;4139776;28;20030;-68
2022/06/10 10:47:21;;;;;;;9.30;1.98;;;25.10;92.60;;;;;;4141428;28;20460;-69
2022/06/10 10:49:36;;;;;;;3.50;1.80;;;24.30;94.00;;;;;;4138531;28;20104;-69
2022/06/10 10:51:41;;;;;;;3.70;1.60;;;23.40;95.30;;;;;;4157762;28;20060;-68
2022/06/10 10:53:48;;;;;;;3.53;1.55;;;23.30;95.70;;;;;;4156713;28;20082;-66
2022/06/10 10:55:54;;;;;;;3.47;1.67;;;23.10;96.70;;;;;;4146165;28;20944;-68
2022/06/10 10:58:14;;;;;;;2.50;1.40;;;23.00;97.10;;;;;;4138451;28;20045;-66
2022/06/10 11:00:15;;;;;;;;;;;23.00;98.50;;;;;;4141336;28;20416;-67
2022/06/10 11:02:28;;;;;;;3.78;1.70;;;22.90;99.70;;;;;;4140295;28;19910;-68
2022/06/10 11:04:34;;;;;;;6.32;1.90;;;22.80;99.70;;;;;;4157600;28;20045;-67
2022/06/10 11:06:36;;;;;;;3.78;1.45;;;22.70;99.30;;;;;;4155984;28;20119;-66
2022/06/10 11:08:39;;;;;;;3.33;1.27;;;22.60;98.90;;;;;;4151033;28;20038;-66
2022/06/10 11:10:58;;;;;;;6.38;1.42;;;22.40;98.60;;;;;;4156209;28;20584;-67
2022/06/10 11:13:06;;;;;;;4.18;1.33;;;22.10;97.40;;;;;;4155768;28;20095;-70
2022/06/10 11:15:28;;;;;;;3.83;1.20;;;21.70;99.00;;;;;;4155729;28;20030;-70
2022/06/10 11:17:30;;;;;;;5.90;1.63;;;21.20;99.70;;;;;;4157316;28;20049;-67